Lee, New Hampshire
Current Conditions -  °F | °C
As of 7:58 AM on Tuesday 21 Oct 2014 (Local Time) from KPSM Reporting Station
Overcast Overcast  
Wind Chill: 45°   Ceiling: 1300
Heat Index: 48°   Visibility: 10mi
Dew Point: 41°   Wind: 6mph
Humidity: 76%   Direction: 30°NNE
Pressure: 29.99"   Gusts: NA
Location:  43.12°N, 71.02°W
Report Text: KPSM 211158Z 03005KT 10SM BKN013 OVC050 09/05 A2999 RMK AO2A SLP159 T00880048 10088 20064 50001
Loading
Personal Weather Stations






























Interactive Weather Map
Tropical Storm Tracking
New forecast layout! Learn more

10-Day Weather Forecast

Advertisements
Track Severe Weather on mobile